sensor_id;sensor_type;location;lat;lon;timestamp;P1;durP1;ratioP1;P2;durP2;ratioP2
40515;SDS011;26216;53.724;9.898;2023-02-28T00:00:46;4.20;;;2.40;;
40515;SDS011;26216;53.724;9.898;2023-02-28T00:03:12;3.58;;;2.05;;
40515;SDS011;26216;53.724;9.898;2023-02-28T00:05:38;4.35;;;2.60;;
40515;SDS011;26216;53.724;9.898;2023-02-28T00:08:04;4.47;;;2.40;;
40515;SDS011;26216;53.724;9.898;2023-02-28T00:10:30;5.55;;;2.45;;
40515;SDS011;26216;53.724;9.898;2023-02-28T00:13:04;6.65;;;2.45;;
40515;SDS011;26216;53.724;9.898;2023-02-28T00:15:31;4.93;;;2.67;;
40515;SDS011;26216;53.724;9.898;2023-02-28T00:17:58;4.00;;;2.42;;
40515;SDS011;26216;53.724;9.898;2023-02-28T00:20:23;4.47;;;2.20;;
40515;SDS011;26216;53.724;9.898;2023-02-28T00:22:50;4.07;;;2.20;;
40515;SDS011;26216;53.724;9.898;2023-02-28T00:25:19;5.22;;;2.63;;
40515;SDS011;26216;53.724;9.898;2023-02-28T00:27:46;4.30;;;2.35;;
40515;SDS011;26216;53.724;9.898;2023-02-28T00:32:47;3.92;;;2.22;;
40515;SDS011;26216;53.724;9.898;2023-02-28T00:35:14;4.63;;;2.40;;
40515;SDS011;26216;53.724;9.898;2023-02-28T00:37:40;4.40;;;2.13;;
40515;SDS011;26216;53.724;9.898;2023-02-28T00:40:06;3.88;;;2.30;;
40515;SDS011;26216;53.724;9.898;2023-02-28T00:42:33;3.47;;;2.20;;
40515;SDS011;26216;53.724;9.898;2023-02-28T00:45:00;4.10;;;2.55;;
40515;SDS011;26216;53.724;9.898;2023-02-28T00:47:26;5.40;;;2.40;;
40515;SDS011;26216;53.724;9.898;2023-02-28T00:49:52;3.17;;;2.13;;
40515;SDS011;26216;53.724;9.898;2023-02-28T00:52:18;3.72;;;1.90;;
40515;SDS011;26216;53.724;9.898;2023-02-28T00:54:43;3.60;;;2.28;;
40515;SDS011;26216;53.724;9.898;2023-02-28T00:57:09;4.38;;;2.35;;
40515;SDS011;26216;53.724;9.898;2023-02-28T00:59:35;4.45;;;2.50;;
40515;SDS011;26216;53.724;9.898;2023-02-28T01:02:01;5.43;;;2.15;;
40515;SDS011;26216;53.724;9.898;2023-02-28T01:04:26;4.07;;;2.40;;
40515;SDS011;26216;53.724;9.898;2023-02-28T01:06:52;4.82;;;2.40;;
40515;SDS011;26216;53.724;9.898;2023-02-28T01:09:18;4.38;;;2.38;;
40515;SDS011;26216;53.724;9.898;2023-02-28T01:11:44;4.03;;;2.40;;
40515;SDS011;26216;53.724;9.898;2023-02-28T01:14:14;4.82;;;2.75;;
40515;SDS011;26216;53.724;9.898;2023-02-28T01:16:41;3.85;;;1.92;;
40515;SDS011;26216;53.724;9.898;2023-02-28T01:19:07;3.47;;;2.05;;
40515;SDS011;26216;53.724;9.898;2023-02-28T01:21:33;4.80;;;2.05;;
40515;SDS011;26216;53.724;9.898;2023-02-28T01:23:59;6.55;;;2.30;;
40515;SDS011;26216;53.724;9.898;2023-02-28T01:26:26;3.10;;;2.10;;
40515;SDS011;26216;53.724;9.898;2023-02-28T01:28:52;4.60;;;2.10;;
40515;SDS011;26216;53.724;9.898;2023-02-28T01:31:18;3.70;;;2.17;;
40515;SDS011;26216;53.724;9.898;2023-02-28T01:33:45;3.85;;;2.15;;
40515;SDS011;26216;53.724;9.898;2023-02-28T01:36:21;4.97;;;2.30;;
40515;SDS011;26216;53.724;9.898;2023-02-28T01:38:49;4.22;;;2.40;;
40515;SDS011;26216;53.724;9.898;2023-02-28T01:41:19;4.20;;;2.28;;
40515;SDS011;26216;53.724;9.898;2023-02-28T01:46:12;3.45;;;2.00;;
40515;SDS011;26216;53.724;9.898;2023-02-28T01:48:50;5.00;;;2.40;;
40515;SDS011;26216;53.724;9.898;2023-02-28T01:51:25;4.88;;;2.13;;
40515;SDS011;26216;53.724;9.898;2023-02-28T01:53:59;4.90;;;2.75;;
40515;SDS011;26216;53.724;9.898;2023-02-28T01:56:30;4.05;;;2.70;;
40515;SDS011;26216;53.724;9.898;2023-02-28T01:59:00;5.53;;;3.00;;
40515;SDS011;26216;53.724;9.898;2023-02-28T02:01:27;5.25;;;2.60;;
40515;SDS011;26216;53.724;9.898;2023-02-28T02:03:55;5.43;;;2.40;;
40515;SDS011;26216;53.724;9.898;2023-02-28T02:06:37;4.43;;;2.55;;
40515;SDS011;26216;53.724;9.898;2023-02-28T02:09:07;4.03;;;2.22;;
40515;SDS011;26216;53.724;9.898;2023-02-28T02:11:33;3.95;;;1.98;;
40515;SDS011;26216;53.724;9.898;2023-02-28T02:27:17;4.40;;;2.17;;
40515;SDS011;26216;53.724;9.898;2023-02-28T02:38:33;2.97;;;1.75;;
40515;SDS011;26216;53.724;9.898;2023-02-28T02:46:34;4.00;;;1.75;;
40515;SDS011;26216;53.724;9.898;2023-02-28T02:49:08;3.22;;;1.85;;
40515;SDS011;26216;53.724;9.898;2023-02-28T02:51:38;2.95;;;1.50;;
40515;SDS011;26216;53.724;9.898;2023-02-28T02:54:08;4.10;;;1.83;;
40515;SDS011;26216;53.724;9.898;2023-02-28T02:56:41;3.97;;;1.70;;
40515;SDS011;26216;53.724;9.898;2023-02-28T02:59:10;3.70;;;1.85;;
40515;SDS011;26216;53.724;9.898;2023-02-28T03:01:38;3.20;;;1.63;;
40515;SDS011;26216;53.724;9.898;2023-02-28T03:04:15;2.50;;;1.50;;
40515;SDS011;26216;53.724;9.898;2023-02-28T03:06:44;2.97;;;1.48;;
40515;SDS011;26216;53.724;9.898;2023-02-28T03:09:09;5.53;;;1.92;;
40515;SDS011;26216;53.724;9.898;2023-02-28T03:11:35;3.20;;;1.58;;
40515;SDS011;26216;53.724;9.898;2023-02-28T03:14:11;3.45;;;1.50;;
40515;SDS011;26216;53.724;9.898;2023-02-28T03:17:08;3.72;;;1.52;;
40515;SDS011;26216;53.724;9.898;2023-02-28T03:20:04;3.88;;;1.42;;
40515;SDS011;26216;53.724;9.898;2023-02-28T03:26:29;2.70;;;1.50;;
40515;SDS011;26216;53.724;9.898;2023-02-28T03:31:38;3.47;;;1.48;;
40515;SDS011;26216;53.724;9.898;2023-02-28T03:34:12;2.38;;;1.15;;
40515;SDS011;26216;53.724;9.898;2023-02-28T03:36:45;3.00;;;1.58;;
40515;SDS011;26216;53.724;9.898;2023-02-28T03:39:27;1.73;;;1.20;;
40515;SDS011;26216;53.724;9.898;2023-02-28T03:42:03;2.97;;;1.50;;
40515;SDS011;26216;53.724;9.898;2023-02-28T03:44:34;4.43;;;1.63;;
40515;SDS011;26216;53.724;9.898;2023-02-28T03:47:19;3.97;;;1.50;;
40515;SDS011;26216;53.724;9.898;2023-02-28T03:52:19;2.85;;;1.38;;
40515;SDS011;26216;53.724;9.898;2023-02-28T03:54:54;3.35;;;1.50;;
40515;SDS011;26216;53.724;9.898;2023-02-28T03:57:27;2.95;;;1.40;;
40515;SDS011;26216;53.724;9.898;2023-02-28T04:00:04;3.40;;;1.73;;
40515;SDS011;26216;53.724;9.898;2023-02-28T04:02:33;3.03;;;1.60;;
40515;SDS011;26216;53.724;9.898;2023-02-28T04:05:00;3.45;;;1.80;;
40515;SDS011;26216;53.724;9.898;2023-02-28T04:07:28;2.72;;;1.63;;
40515;SDS011;26216;53.724;9.898;2023-02-28T04:09:55;5.20;;;1.70;;
40515;SDS011;26216;53.724;9.898;2023-02-28T04:12:20;3.72;;;1.83;;
40515;SDS011;26216;53.724;9.898;2023-02-28T04:14:48;2.90;;;1.38;;
40515;SDS011;26216;53.724;9.898;2023-02-28T04:17:14;4.25;;;1.60;;
40515;SDS011;26216;53.724;9.898;2023-02-28T04:19:41;4.45;;;2.15;;
40515;SDS011;26216;53.724;9.898;2023-02-28T04:22:07;2.60;;;1.50;;
40515;SDS011;26216;53.724;9.898;2023-02-28T04:24:33;4.80;;;2.10;;
40515;SDS011;26216;53.724;9.898;2023-02-28T04:26:59;5.53;;;2.13;;
40515;SDS011;26216;53.724;9.898;2023-02-28T04:29:29;3.75;;;1.90;;
40515;SDS011;26216;53.724;9.898;2023-02-28T04:31:57;3.50;;;1.75;;
40515;SDS011;26216;53.724;9.898;2023-02-28T04:34:27;3.58;;;1.60;;
40515;SDS011;26216;53.724;9.898;2023-02-28T04:36:55;2.90;;;1.63;;
40515;SDS011;26216;53.724;9.898;2023-02-28T04:39:22;2.95;;;1.60;;
40515;SDS011;26216;53.724;9.898;2023-02-28T04:41:48;4.10;;;2.10;;
40515;SDS011;26216;53.724;9.898;2023-02-28T04:44:15;4.50;;;2.03;;
40515;SDS011;26216;53.724;9.898;2023-02-28T04:46:41;2.83;;;1.75;;
40515;SDS011;26216;53.724;9.898;2023-02-28T04:49:08;5.10;;;1.83;;
40515;SDS011;26216;53.724;9.898;2023-02-28T04:51:38;4.00;;;1.73;;
40515;SDS011;26216;53.724;9.898;2023-02-28T04:54:03;3.80;;;1.58;;
40515;SDS011;26216;53.724;9.898;2023-02-28T04:56:30;2.85;;;1.80;;
40515;SDS011;26216;53.724;9.898;2023-02-28T04:58:56;3.83;;;2.05;;
40515;SDS011;26216;53.724;9.898;2023-02-28T05:01:23;4.18;;;1.65;;
40515;SDS011;26216;53.724;9.898;2023-02-28T05:03:51;2.95;;;1.52;;
40515;SDS011;26216;53.724;9.898;2023-02-28T05:06:21;3.72;;;1.80;;
40515;SDS011;26216;53.724;9.898;2023-02-28T05:08:49;5.03;;;1.97;;
40515;SDS011;26216;53.724;9.898;2023-02-28T05:11:16;3.88;;;1.92;;
40515;SDS011;26216;53.724;9.898;2023-02-28T05:13:47;3.63;;;1.80;;
40515;SDS011;26216;53.724;9.898;2023-02-28T05:16:13;3.10;;;1.95;;
40515;SDS011;26216;53.724;9.898;2023-02-28T05:18:39;3.63;;;2.05;;
40515;SDS011;26216;53.724;9.898;2023-02-28T05:21:05;4.57;;;2.58;;
40515;SDS011;26216;53.724;9.898;2023-02-28T05:23:48;6.22;;;2.83;;
40515;SDS011;26216;53.724;9.898;2023-02-28T05:26:14;4.93;;;2.38;;
40515;SDS011;26216;53.724;9.898;2023-02-28T05:28:40;5.68;;;2.65;;
40515;SDS011;26216;53.724;9.898;2023-02-28T05:31:06;6.90;;;3.17;;
40515;SDS011;26216;53.724;9.898;2023-02-28T05:33:32;4.95;;;2.88;;
40515;SDS011;26216;53.724;9.898;2023-02-28T05:35:58;4.75;;;2.42;;
40515;SDS011;26216;53.724;9.898;2023-02-28T05:38:24;5.22;;;2.67;;
40515;SDS011;26216;53.724;9.898;2023-02-28T05:40:50;5.88;;;2.50;;
40515;SDS011;26216;53.724;9.898;2023-02-28T05:43:15;5.80;;;2.45;;
40515;SDS011;26216;53.724;9.898;2023-02-28T05:45:41;4.32;;;2.38;;
40515;SDS011;26216;53.724;9.898;2023-02-28T05:48:07;4.97;;;2.20;;
40515;SDS011;26216;53.724;9.898;2023-02-28T05:50:33;5.00;;;2.20;;
40515;SDS011;26216;53.724;9.898;2023-02-28T05:52:59;4.70;;;2.25;;
40515;SDS011;26216;53.724;9.898;2023-02-28T05:55:24;4.45;;;1.92;;
40515;SDS011;26216;53.724;9.898;2023-02-28T05:57:50;4.15;;;2.13;;
40515;SDS011;26216;53.724;9.898;2023-02-28T06:00:16;4.68;;;2.00;;
40515;SDS011;26216;53.724;9.898;2023-02-28T06:02:42;3.80;;;1.85;;
40515;SDS011;26216;53.724;9.898;2023-02-28T06:05:17;5.13;;;2.38;;
40515;SDS011;26216;53.724;9.898;2023-02-28T06:07:43;4.35;;;1.98;;
40515;SDS011;26216;53.724;9.898;2023-02-28T06:10:10;4.15;;;1.80;;
40515;SDS011;26216;53.724;9.898;2023-02-28T06:12:37;2.67;;;1.85;;
40515;SDS011;26216;53.724;9.898;2023-02-28T06:25:10;4.60;;;1.80;;
40515;SDS011;26216;53.724;9.898;2023-02-28T06:27:36;4.78;;;2.35;;
40515;SDS011;26216;53.724;9.898;2023-02-28T06:30:02;4.65;;;1.90;;
40515;SDS011;26216;53.724;9.898;2023-02-28T06:32:28;4.82;;;2.05;;
40515;SDS011;26216;53.724;9.898;2023-02-28T06:34:54;3.63;;;2.08;;
40515;SDS011;26216;53.724;9.898;2023-02-28T06:37:22;4.55;;;1.95;;
40515;SDS011;26216;53.724;9.898;2023-02-28T06:39:51;4.20;;;2.00;;
40515;SDS011;26216;53.724;9.898;2023-02-28T06:42:17;4.07;;;2.08;;
40515;SDS011;26216;53.724;9.898;2023-02-28T06:44:43;6.28;;;3.03;;
40515;SDS011;26216;53.724;9.898;2023-02-28T06:47:09;3.90;;;1.80;;
40515;SDS011;26216;53.724;9.898;2023-02-28T06:49:34;3.55;;;2.13;;
40515;SDS011;26216;53.724;9.898;2023-02-28T06:52:01;4.90;;;2.45;;
40515;SDS011;26216;53.724;9.898;2023-02-28T06:54:27;4.05;;;2.30;;
40515;SDS011;26216;53.724;9.898;2023-02-28T06:56:53;5.95;;;2.10;;
40515;SDS011;26216;53.724;9.898;2023-02-28T06:59:19;5.32;;;2.40;;
40515;SDS011;26216;53.724;9.898;2023-02-28T07:01:45;5.13;;;2.10;;
40515;SDS011;26216;53.724;9.898;2023-02-28T07:04:11;4.55;;;2.33;;
40515;SDS011;26216;53.724;9.898;2023-02-28T07:06:38;4.43;;;2.22;;
40515;SDS011;26216;53.724;9.898;2023-02-28T07:09:04;6.35;;;2.80;;
40515;SDS011;26216;53.724;9.898;2023-02-28T07:11:30;6.43;;;2.40;;
40515;SDS011;26216;53.724;9.898;2023-02-28T07:13:57;10.40;;;4.75;;
40515;SDS011;26216;53.724;9.898;2023-02-28T07:16:23;11.57;;;5.88;;
40515;SDS011;26216;53.724;9.898;2023-02-28T07:18:52;11.80;;;5.80;;
40515;SDS011;26216;53.724;9.898;2023-02-28T07:21:18;12.40;;;7.03;;
40515;SDS011;26216;53.724;9.898;2023-02-28T07:23:44;13.55;;;6.97;;
40515;SDS011;26216;53.724;9.898;2023-02-28T07:26:11;9.77;;;5.55;;
40515;SDS011;26216;53.724;9.898;2023-02-28T07:28:40;10.73;;;6.10;;
40515;SDS011;26216;53.724;9.898;2023-02-28T07:31:07;9.68;;;5.00;;
40515;SDS011;26216;53.724;9.898;2023-02-28T07:33:34;8.82;;;4.85;;
40515;SDS011;26216;53.724;9.898;2023-02-28T07:36:02;7.82;;;3.85;;
40515;SDS011;26216;53.724;9.898;2023-02-28T07:38:29;7.72;;;3.72;;
40515;SDS011;26216;53.724;9.898;2023-02-28T07:40:55;6.25;;;3.45;;
40515;SDS011;26216;53.724;9.898;2023-02-28T07:43:21;6.75;;;3.40;;
40515;SDS011;26216;53.724;9.898;2023-02-28T07:45:46;7.25;;;3.30;;
40515;SDS011;26216;53.724;9.898;2023-02-28T07:48:12;5.32;;;2.60;;
40515;SDS011;26216;53.724;9.898;2023-02-28T07:50:38;5.70;;;2.92;;
40515;SDS011;26216;53.724;9.898;2023-02-28T07:53:04;7.15;;;3.00;;
40515;SDS011;26216;53.724;9.898;2023-02-28T07:55:30;5.25;;;2.75;;
40515;SDS011;26216;53.724;9.898;2023-02-28T07:57:56;5.15;;;2.72;;
40515;SDS011;26216;53.724;9.898;2023-02-28T08:00:23;4.70;;;2.60;;
40515;SDS011;26216;53.724;9.898;2023-02-28T08:02:49;5.22;;;2.45;;
40515;SDS011;26216;53.724;9.898;2023-02-28T08:05:15;4.00;;;2.20;;
40515;SDS011;26216;53.724;9.898;2023-02-28T08:07:42;4.75;;;2.35;;
40515;SDS011;26216;53.724;9.898;2023-02-28T08:10:08;4.95;;;2.15;;
40515;SDS011;26216;53.724;9.898;2023-02-28T08:12:35;4.55;;;2.25;;
40515;SDS011;26216;53.724;9.898;2023-02-28T08:15:00;3.83;;;2.03;;
40515;SDS011;26216;53.724;9.898;2023-02-28T08:17:26;3.53;;;1.77;;
40515;SDS011;26216;53.724;9.898;2023-02-28T08:19:52;5.43;;;2.22;;
40515;SDS011;26216;53.724;9.898;2023-02-28T08:22:18;4.60;;;1.80;;
40515;SDS011;26216;53.724;9.898;2023-02-28T08:24:44;4.72;;;1.83;;
40515;SDS011;26216;53.724;9.898;2023-02-28T08:27:10;4.10;;;2.45;;
40515;SDS011;26216;53.724;9.898;2023-02-28T08:29:38;3.70;;;2.10;;
40515;SDS011;26216;53.724;9.898;2023-02-28T08:32:05;2.92;;;2.00;;
40515;SDS011;26216;53.724;9.898;2023-02-28T08:34:32;3.15;;;1.80;;
40515;SDS011;26216;53.724;9.898;2023-02-28T08:36:58;3.00;;;1.80;;
40515;SDS011;26216;53.724;9.898;2023-02-28T08:39:24;4.68;;;1.80;;
40515;SDS011;26216;53.724;9.898;2023-02-28T08:41:50;3.08;;;1.80;;
40515;SDS011;26216;53.724;9.898;2023-02-28T08:44:15;3.30;;;1.70;;
40515;SDS011;26216;53.724;9.898;2023-02-28T08:46:41;4.10;;;2.08;;
40515;SDS011;26216;53.724;9.898;2023-02-28T08:49:09;3.80;;;1.50;;
40515;SDS011;26216;53.724;9.898;2023-02-28T08:51:35;2.90;;;1.70;;
40515;SDS011;26216;53.724;9.898;2023-02-28T08:54:01;3.53;;;1.98;;
40515;SDS011;26216;53.724;9.898;2023-02-28T08:56:27;3.20;;;2.03;;
40515;SDS011;26216;53.724;9.898;2023-02-28T08:58:54;5.22;;;2.50;;
40515;SDS011;26216;53.724;9.898;2023-02-28T09:01:22;3.55;;;1.77;;
40515;SDS011;26216;53.724;9.898;2023-02-28T09:03:52;3.35;;;1.50;;
40515;SDS011;26216;53.724;9.898;2023-02-28T09:06:20;3.80;;;1.92;;
40515;SDS011;26216;53.724;9.898;2023-02-28T09:08:46;4.50;;;1.80;;
40515;SDS011;26216;53.724;9.898;2023-02-28T09:11:13;2.72;;;1.50;;
40515;SDS011;26216;53.724;9.898;2023-02-28T09:13:39;2.40;;;1.40;;
40515;SDS011;26216;53.724;9.898;2023-02-28T09:16:06;3.05;;;1.73;;
40515;SDS011;26216;53.724;9.898;2023-02-28T09:18:34;4.57;;;1.63;;
40515;SDS011;26216;53.724;9.898;2023-02-28T09:21:05;3.17;;;1.60;;
40515;SDS011;26216;53.724;9.898;2023-02-28T09:23:33;2.78;;;1.58;;
40515;SDS011;26216;53.724;9.898;2023-02-28T09:25:59;3.00;;;1.80;;
40515;SDS011;26216;53.724;9.898;2023-02-28T09:28:25;3.88;;;2.00;;
40515;SDS011;26216;53.724;9.898;2023-02-28T09:30:52;3.63;;;1.60;;
40515;SDS011;26216;53.724;9.898;2023-02-28T09:33:20;2.95;;;1.50;;
40515;SDS011;26216;53.724;9.898;2023-02-28T09:35:47;3.92;;;1.60;;
40515;SDS011;26216;53.724;9.898;2023-02-28T09:38:17;2.58;;;1.30;;
40515;SDS011;26216;53.724;9.898;2023-02-28T09:40:50;4.85;;;1.60;;
40515;SDS011;26216;53.724;9.898;2023-02-28T09:43:19;2.10;;;1.25;;
40515;SDS011;26216;53.724;9.898;2023-02-28T09:46:11;2.80;;;1.65;;
40515;SDS011;26216;53.724;9.898;2023-02-28T09:48:47;2.28;;;1.08;;
40515;SDS011;26216;53.724;9.898;2023-02-28T09:51:34;3.00;;;1.30;;
40515;SDS011;26216;53.724;9.898;2023-02-28T09:54:19;2.17;;;1.10;;
40515;SDS011;26216;53.724;9.898;2023-02-28T09:56:49;2.60;;;1.23;;
40515;SDS011;26216;53.724;9.898;2023-02-28T10:02:17;1.65;;;0.90;;
40515;SDS011;26216;53.724;9.898;2023-02-28T10:04:58;2.80;;;1.02;;
40515;SDS011;26216;53.724;9.898;2023-02-28T10:09:54;2.47;;;1.10;;
40515;SDS011;26216;53.724;9.898;2023-02-28T10:12:23;2.58;;;1.30;;
40515;SDS011;26216;53.724;9.898;2023-02-28T10:14:51;2.08;;;1.33;;
40515;SDS011;26216;53.724;9.898;2023-02-28T10:17:21;3.15;;;1.15;;
40515;SDS011;26216;53.724;9.898;2023-02-28T10:22:52;2.17;;;1.00;;
40515;SDS011;26216;53.724;9.898;2023-02-28T10:25:23;2.85;;;1.17;;
40515;SDS011;26216;53.724;9.898;2023-02-28T10:27:58;2.70;;;1.08;;
40515;SDS011;26216;53.724;9.898;2023-02-28T10:30:47;4.25;;;1.55;;
40515;SDS011;26216;53.724;9.898;2023-02-28T10:33:25;2.30;;;0.90;;
40515;SDS011;26216;53.724;9.898;2023-02-28T10:35:59;2.35;;;1.00;;
40515;SDS011;26216;53.724;9.898;2023-02-28T10:38:27;1.15;;;0.90;;
40515;SDS011;26216;53.724;9.898;2023-02-28T10:41:10;1.83;;;1.00;;
40515;SDS011;26216;53.724;9.898;2023-02-28T10:43:40;2.28;;;1.08;;
40515;SDS011;26216;53.724;9.898;2023-02-28T10:48:37;2.58;;;1.05;;
40515;SDS011;26216;53.724;9.898;2023-02-28T10:51:07;1.80;;;1.05;;
40515;SDS011;26216;53.724;9.898;2023-02-28T11:01:15;2.55;;;1.00;;
40515;SDS011;26216;53.724;9.898;2023-02-28T11:03:51;2.83;;;1.20;;
40515;SDS011;26216;53.724;9.898;2023-02-28T11:08:49;1.50;;;0.95;;
40515;SDS011;26216;53.724;9.898;2023-02-28T11:11:18;2.85;;;1.00;;
40515;SDS011;26216;53.724;9.898;2023-02-28T11:13:45;3.47;;;1.20;;
40515;SDS011;26216;53.724;9.898;2023-02-28T11:16:13;2.63;;;1.27;;
40515;SDS011;26216;53.724;9.898;2023-02-28T11:18:42;1.52;;;0.85;;
40515;SDS011;26216;53.724;9.898;2023-02-28T11:21:21;1.63;;;0.95;;
40515;SDS011;26216;53.724;9.898;2023-02-28T11:23:52;1.90;;;0.80;;
40515;SDS011;26216;53.724;9.898;2023-02-28T11:26:38;2.55;;;1.00;;
40515;SDS011;26216;53.724;9.898;2023-02-28T11:29:16;1.17;;;0.70;;
40515;SDS011;26216;53.724;9.898;2023-02-28T11:34:41;1.10;;;0.73;;
40515;SDS011;26216;53.724;9.898;2023-02-28T11:37:12;4.28;;;1.00;;
40515;SDS011;26216;53.724;9.898;2023-02-28T11:39:40;1.90;;;0.90;;
40515;SDS011;26216;53.724;9.898;2023-02-28T11:45:13;1.25;;;0.85;;
40515;SDS011;26216;53.724;9.898;2023-02-28T11:48:15;1.35;;;0.90;;
40515;SDS011;26216;53.724;9.898;2023-02-28T11:51:03;2.13;;;0.88;;
40515;SDS011;26216;53.724;9.898;2023-02-28T11:56:23;1.58;;;0.90;;
40515;SDS011;26216;53.724;9.898;2023-02-28T12:04:25;1.95;;;0.95;;
40515;SDS011;26216;53.724;9.898;2023-02-28T12:23:44;2.03;;;1.00;;
40515;SDS011;26216;53.724;9.898;2023-02-28T12:29:03;2.05;;;1.17;;
40515;SDS011;26216;53.724;9.898;2023-02-28T12:31:50;2.83;;;1.00;;
40515;SDS011;26216;53.724;9.898;2023-02-28T12:34:34;1.45;;;1.00;;
40515;SDS011;26216;53.724;9.898;2023-02-28T12:37:08;3.13;;;1.02;;
40515;SDS011;26216;53.724;9.898;2023-02-28T12:39:49;1.65;;;0.93;;
40515;SDS011;26216;53.724;9.898;2023-02-28T12:42:28;4.07;;;1.20;;
40515;SDS011;26216;53.724;9.898;2023-02-28T12:45:13;1.95;;;1.20;;
40515;SDS011;26216;53.724;9.898;2023-02-28T12:47:42;2.40;;;1.10;;
40515;SDS011;26216;53.724;9.898;2023-02-28T12:50:12;1.67;;;1.00;;
40515;SDS011;26216;53.724;9.898;2023-02-28T13:06:41;2.20;;;1.10;;
40515;SDS011;26216;53.724;9.898;2023-02-28T13:09:20;2.60;;;1.35;;
40515;SDS011;26216;53.724;9.898;2023-02-28T13:11:47;2.85;;;1.50;;
40515;SDS011;26216;53.724;9.898;2023-02-28T13:14:19;1.83;;;1.08;;
40515;SDS011;26216;53.724;9.898;2023-02-28T13:16:58;3.25;;;1.20;;
40515;SDS011;26216;53.724;9.898;2023-02-28T13:22:37;1.75;;;1.13;;
40515;SDS011;26216;53.724;9.898;2023-02-28T13:27:55;1.85;;;0.90;;
40515;SDS011;26216;53.724;9.898;2023-02-28T13:38:44;1.83;;;1.10;;
40515;SDS011;26216;53.724;9.898;2023-02-28T13:44:13;2.65;;;1.20;;
40515;SDS011;26216;53.724;9.898;2023-02-28T13:49:26;2.05;;;1.10;;
40515;SDS011;26216;53.724;9.898;2023-02-28T13:54:43;1.55;;;0.90;;
40515;SDS011;26216;53.724;9.898;2023-02-28T14:06:22;2.65;;;1.50;;
40515;SDS011;26216;53.724;9.898;2023-02-28T14:08:53;2.67;;;1.10;;
40515;SDS011;26216;53.724;9.898;2023-02-28T14:11:26;2.30;;;1.25;;
40515;SDS011;26216;53.724;9.898;2023-02-28T14:14:01;2.85;;;1.20;;
40515;SDS011;26216;53.724;9.898;2023-02-28T14:16:36;2.85;;;1.50;;
40515;SDS011;26216;53.724;9.898;2023-02-28T14:19:15;2.65;;;1.45;;
40515;SDS011;26216;53.724;9.898;2023-02-28T14:25:05;2.10;;;1.27;;
40515;SDS011;26216;53.724;9.898;2023-02-28T14:28:13;2.03;;;1.20;;
40515;SDS011;26216;53.724;9.898;2023-02-28T14:33:23;3.60;;;1.48;;
40515;SDS011;26216;53.724;9.898;2023-02-28T14:36:21;1.80;;;1.00;;
40515;SDS011;26216;53.724;9.898;2023-02-28T14:38:52;2.15;;;1.08;;
40515;SDS011;26216;53.724;9.898;2023-02-28T14:41:30;2.80;;;1.23;;
40515;SDS011;26216;53.724;9.898;2023-02-28T14:43:57;3.10;;;1.10;;
40515;SDS011;26216;53.724;9.898;2023-02-28T14:46:33;3.05;;;1.60;;
40515;SDS011;26216;53.724;9.898;2023-02-28T14:49:06;1.88;;;1.25;;
40515;SDS011;26216;53.724;9.898;2023-02-28T14:54:54;3.35;;;1.30;;
40515;SDS011;26216;53.724;9.898;2023-02-28T15:02:29;1.70;;;0.90;;
40515;SDS011;26216;53.724;9.898;2023-02-28T15:04:59;2.47;;;1.20;;
40515;SDS011;26216;53.724;9.898;2023-02-28T15:07:35;2.97;;;1.20;;
40515;SDS011;26216;53.724;9.898;2023-02-28T15:12:39;2.35;;;1.10;;
40515;SDS011;26216;53.724;9.898;2023-02-28T15:15:14;1.50;;;0.80;;
40515;SDS011;26216;53.724;9.898;2023-02-28T15:17:42;1.35;;;0.80;;
40515;SDS011;26216;53.724;9.898;2023-02-28T15:20:15;1.60;;;0.88;;
40515;SDS011;26216;53.724;9.898;2023-02-28T15:22:43;1.00;;;0.73;;
40515;SDS011;26216;53.724;9.898;2023-02-28T15:25:13;0.98;;;0.60;;
40515;SDS011;26216;53.724;9.898;2023-02-28T15:27:45;1.58;;;0.82;;
40515;SDS011;26216;53.724;9.898;2023-02-28T15:30:15;1.40;;;0.70;;
40515;SDS011;26216;53.724;9.898;2023-02-28T15:32:48;1.50;;;0.82;;
40515;SDS011;26216;53.724;9.898;2023-02-28T15:35:47;1.33;;;0.70;;
40515;SDS011;26216;53.724;9.898;2023-02-28T15:38:23;2.47;;;0.73;;
40515;SDS011;26216;53.724;9.898;2023-02-28T15:40:55;1.55;;;0.88;;
40515;SDS011;26216;53.724;9.898;2023-02-28T15:43:32;1.45;;;0.80;;
40515;SDS011;26216;53.724;9.898;2023-02-28T15:46:06;2.00;;;0.93;;
40515;SDS011;26216;53.724;9.898;2023-02-28T15:51:25;2.75;;;0.80;;
40515;SDS011;26216;53.724;9.898;2023-02-28T15:53:58;2.47;;;1.00;;
40515;SDS011;26216;53.724;9.898;2023-02-28T15:56:42;1.13;;;0.80;;
40515;SDS011;26216;53.724;9.898;2023-02-28T15:59:18;1.63;;;1.00;;
40515;SDS011;26216;53.724;9.898;2023-02-28T16:01:47;2.13;;;1.17;;
40515;SDS011;26216;53.724;9.898;2023-02-28T16:04:26;2.15;;;0.90;;
40515;SDS011;26216;53.724;9.898;2023-02-28T16:09:29;1.52;;;0.77;;
40515;SDS011;26216;53.724;9.898;2023-02-28T16:11:58;2.05;;;0.80;;
40515;SDS011;26216;53.724;9.898;2023-02-28T16:14:30;1.63;;;0.70;;
40515;SDS011;26216;53.724;9.898;2023-02-28T16:17:02;1.17;;;0.70;;
40515;SDS011;26216;53.724;9.898;2023-02-28T16:19:30;1.63;;;0.80;;
40515;SDS011;26216;53.724;9.898;2023-02-28T16:21:56;0.88;;;0.75;;
40515;SDS011;26216;53.724;9.898;2023-02-28T16:24:23;1.85;;;0.80;;
40515;SDS011;26216;53.724;9.898;2023-02-28T16:26:50;2.40;;;0.93;;
40515;SDS011;26216;53.724;9.898;2023-02-28T16:29:21;1.45;;;0.90;;
40515;SDS011;26216;53.724;9.898;2023-02-28T16:31:53;1.60;;;0.85;;
40515;SDS011;26216;53.724;9.898;2023-02-28T16:34:19;1.13;;;0.68;;
40515;SDS011;26216;53.724;9.898;2023-02-28T16:36:46;1.65;;;0.65;;
40515;SDS011;26216;53.724;9.898;2023-02-28T16:39:13;1.55;;;0.70;;
40515;SDS011;26216;53.724;9.898;2023-02-28T16:41:41;2.17;;;1.13;;
40515;SDS011;26216;53.724;9.898;2023-02-28T16:44:11;2.17;;;1.00;;
40515;SDS011;26216;53.724;9.898;2023-02-28T16:46:51;1.08;;;0.60;;
40515;SDS011;26216;53.724;9.898;2023-02-28T16:49:18;2.05;;;0.80;;
40515;SDS011;26216;53.724;9.898;2023-02-28T16:51:44;1.95;;;0.90;;
40515;SDS011;26216;53.724;9.898;2023-02-28T16:54:10;1.55;;;0.77;;
40515;SDS011;26216;53.724;9.898;2023-02-28T16:56:36;2.30;;;0.90;;
40515;SDS011;26216;53.724;9.898;2023-02-28T16:59:07;2.00;;;1.20;;
40515;SDS011;26216;53.724;9.898;2023-02-28T17:01:34;2.00;;;1.27;;
40515;SDS011;26216;53.724;9.898;2023-02-28T17:04:00;2.05;;;1.05;;
40515;SDS011;26216;53.724;9.898;2023-02-28T17:06:27;3.42;;;1.25;;
40515;SDS011;26216;53.724;9.898;2023-02-28T17:08:54;1.83;;;1.05;;
40515;SDS011;26216;53.724;9.898;2023-02-28T17:11:23;2.22;;;1.20;;
40515;SDS011;26216;53.724;9.898;2023-02-28T17:13:50;2.28;;;1.13;;
40515;SDS011;26216;53.724;9.898;2023-02-28T17:16:21;2.35;;;1.40;;
40515;SDS011;26216;53.724;9.898;2023-02-28T17:18:59;2.53;;;1.48;;
40515;SDS011;26216;53.724;9.898;2023-02-28T17:21:28;2.85;;;1.45;;
40515;SDS011;26216;53.724;9.898;2023-02-28T17:23:55;2.60;;;1.52;;
40515;SDS011;26216;53.724;9.898;2023-02-28T17:26:21;2.85;;;1.40;;
40515;SDS011;26216;53.724;9.898;2023-02-28T17:28:51;2.38;;;1.25;;
40515;SDS011;26216;53.724;9.898;2023-02-28T17:31:19;3.42;;;1.30;;
40515;SDS011;26216;53.724;9.898;2023-02-28T17:33:47;2.15;;;1.30;;
40515;SDS011;26216;53.724;9.898;2023-02-28T17:36:18;1.90;;;1.00;;
40515;SDS011;26216;53.724;9.898;2023-02-28T17:38:51;2.10;;;1.27;;
40515;SDS011;26216;53.724;9.898;2023-02-28T17:41:18;3.90;;;1.13;;
40515;SDS011;26216;53.724;9.898;2023-02-28T17:43:44;1.80;;;0.90;;
40515;SDS011;26216;53.724;9.898;2023-02-28T17:46:20;3.03;;;1.25;;
40515;SDS011;26216;53.724;9.898;2023-02-28T17:48:48;1.50;;;0.85;;
40515;SDS011;26216;53.724;9.898;2023-02-28T17:51:22;1.98;;;1.27;;
40515;SDS011;26216;53.724;9.898;2023-02-28T17:53:49;2.20;;;0.90;;
40515;SDS011;26216;53.724;9.898;2023-02-28T17:56:17;2.00;;;1.10;;
40515;SDS011;26216;53.724;9.898;2023-02-28T17:58:45;2.90;;;1.10;;